sensor_id;sensor_type;location;lat;lon;timestamp;P1;durP1;ratioP1;P2;durP2;ratioP2
49310;SDS011;35177;45.900;5.946;2024-01-07T00:01:38;3.33;;;2.22;;
49310;SDS011;35177;45.900;5.946;2024-01-07T00:04:03;2.05;;;1.50;;
49310;SDS011;35177;45.900;5.946;2024-01-07T00:06:29;1.80;;;1.10;;
49310;SDS011;35177;45.900;5.946;2024-01-07T00:08:54;1.85;;;1.20;;
49310;SDS011;35177;45.900;5.946;2024-01-07T00:11:20;3.30;;;1.83;;
49310;SDS011;35177;45.900;5.946;2024-01-07T00:13:45;1.27;;;1.10;;
49310;SDS011;35177;45.900;5.946;2024-01-07T00:16:11;1.65;;;1.20;;
49310;SDS011;35177;45.900;5.946;2024-01-07T00:18:36;1.75;;;1.10;;
49310;SDS011;35177;45.900;5.946;2024-01-07T00:21:02;1.13;;;0.93;;
49310;SDS011;35177;45.900;5.946;2024-01-07T00:23:27;1.10;;;1.00;;
49310;SDS011;35177;45.900;5.946;2024-01-07T00:25:53;2.28;;;0.90;;
49310;SDS011;35177;45.900;5.946;2024-01-07T00:28:18;1.00;;;0.90;;
49310;SDS011;35177;45.900;5.946;2024-01-07T00:30:44;0.70;;;0.70;;
49310;SDS011;35177;45.900;5.946;2024-01-07T00:33:09;0.68;;;0.60;;
49310;SDS011;35177;45.900;5.946;2024-01-07T00:35:34;1.02;;;0.82;;
49310;SDS011;35177;45.900;5.946;2024-01-07T00:38:00;1.02;;;0.65;;
49310;SDS011;35177;45.900;5.946;2024-01-07T00:40:25;1.08;;;0.77;;
49310;SDS011;35177;45.900;5.946;2024-01-07T00:42:51;1.23;;;0.75;;
49310;SDS011;35177;45.900;5.946;2024-01-07T00:45:20;0.73;;;0.70;;
49310;SDS011;35177;45.900;5.946;2024-01-07T00:47:46;1.25;;;0.80;;
49310;SDS011;35177;45.900;5.946;2024-01-07T00:50:12;1.23;;;0.90;;
49310;SDS011;35177;45.900;5.946;2024-01-07T00:52:37;1.52;;;0.75;;
49310;SDS011;35177;45.900;5.946;2024-01-07T00:55:03;1.20;;;0.80;;
49310;SDS011;35177;45.900;5.946;2024-01-07T00:57:31;1.83;;;0.80;;
49310;SDS011;35177;45.900;5.946;2024-01-07T00:59:56;0.80;;;0.80;;
49310;SDS011;35177;45.900;5.946;2024-01-07T01:02:22;3.28;;;0.70;;
49310;SDS011;35177;45.900;5.946;2024-01-07T01:04:47;1.60;;;1.00;;
49310;SDS011;35177;45.900;5.946;2024-01-07T01:07:13;2.90;;;1.50;;
49310;SDS011;35177;45.900;5.946;2024-01-07T01:09:39;1.77;;;1.10;;
49310;SDS011;35177;45.900;5.946;2024-01-07T01:12:04;2.42;;;1.40;;
49310;SDS011;35177;45.900;5.946;2024-01-07T01:14:30;9.88;;;1.25;;
49310;SDS011;35177;45.900;5.946;2024-01-07T01:16:55;1.30;;;1.15;;
49310;SDS011;35177;45.900;5.946;2024-01-07T01:19:21;1.38;;;1.20;;
49310;SDS011;35177;45.900;5.946;2024-01-07T01:21:46;2.17;;;1.70;;
49310;SDS011;35177;45.900;5.946;2024-01-07T01:24:11;1.98;;;1.48;;
49310;SDS011;35177;45.900;5.946;2024-01-07T01:26:37;1.67;;;1.30;;
49310;SDS011;35177;45.900;5.946;2024-01-07T01:29:04;1.73;;;1.48;;
49310;SDS011;35177;45.900;5.946;2024-01-07T01:31:30;2.60;;;1.50;;
49310;SDS011;35177;45.900;5.946;2024-01-07T01:33:55;1.67;;;1.35;;
49310;SDS011;35177;45.900;5.946;2024-01-07T01:36:20;1.85;;;1.40;;
49310;SDS011;35177;45.900;5.946;2024-01-07T01:38:46;2.25;;;1.88;;
49310;SDS011;35177;45.900;5.946;2024-01-07T01:41:13;1.98;;;1.70;;
49310;SDS011;35177;45.900;5.946;2024-01-07T01:43:39;2.35;;;1.60;;
49310;SDS011;35177;45.900;5.946;2024-01-07T01:46:04;1.55;;;1.30;;
49310;SDS011;35177;45.900;5.946;2024-01-07T01:48:30;2.47;;;1.52;;
49310;SDS011;35177;45.900;5.946;2024-01-07T01:50:55;2.50;;;1.80;;
49310;SDS011;35177;45.900;5.946;2024-01-07T01:53:22;2.10;;;1.90;;
49310;SDS011;35177;45.900;5.946;2024-01-07T01:55:50;1.90;;;1.45;;
49310;SDS011;35177;45.900;5.946;2024-01-07T01:58:16;2.45;;;1.65;;
49310;SDS011;35177;45.900;5.946;2024-01-07T02:00:43;2.15;;;1.35;;
49310;SDS011;35177;45.900;5.946;2024-01-07T02:03:09;2.40;;;1.75;;
49310;SDS011;35177;45.900;5.946;2024-01-07T02:05:34;1.75;;;1.40;;
49310;SDS011;35177;45.900;5.946;2024-01-07T02:08:00;2.00;;;1.48;;
49310;SDS011;35177;45.900;5.946;2024-01-07T02:10:25;1.40;;;1.30;;
49310;SDS011;35177;45.900;5.946;2024-01-07T02:12:51;2.28;;;1.13;;
49310;SDS011;35177;45.900;5.946;2024-01-07T02:15:16;1.63;;;1.30;;
49310;SDS011;35177;45.900;5.946;2024-01-07T02:17:41;1.90;;;1.48;;
49310;SDS011;35177;45.900;5.946;2024-01-07T02:20:07;1.65;;;1.35;;
49310;SDS011;35177;45.900;5.946;2024-01-07T02:22:33;3.20;;;1.38;;
49310;SDS011;35177;45.900;5.946;2024-01-07T02:24:58;1.40;;;1.20;;
49310;SDS011;35177;45.900;5.946;2024-01-07T02:27:23;1.10;;;1.00;;
49310;SDS011;35177;45.900;5.946;2024-01-07T02:29:49;2.90;;;1.15;;
49310;SDS011;35177;45.900;5.946;2024-01-07T02:32:14;1.30;;;1.20;;
49310;SDS011;35177;45.900;5.946;2024-01-07T02:34:40;2.15;;;1.10;;
49310;SDS011;35177;45.900;5.946;2024-01-07T02:37:05;1.58;;;1.30;;
49310;SDS011;35177;45.900;5.946;2024-01-07T02:39:30;1.70;;;1.17;;
49310;SDS011;35177;45.900;5.946;2024-01-07T02:41:57;1.60;;;1.23;;
49310;SDS011;35177;45.900;5.946;2024-01-07T02:44:22;1.63;;;1.25;;
49310;SDS011;35177;45.900;5.946;2024-01-07T02:46:48;1.02;;;0.93;;
49310;SDS011;35177;45.900;5.946;2024-01-07T02:49:13;1.35;;;1.00;;
49310;SDS011;35177;45.900;5.946;2024-01-07T02:51:39;2.35;;;1.27;;
49310;SDS011;35177;45.900;5.946;2024-01-07T02:54:04;1.67;;;1.25;;
49310;SDS011;35177;45.900;5.946;2024-01-07T02:56:29;2.85;;;1.30;;
49310;SDS011;35177;45.900;5.946;2024-01-07T02:58:55;2.45;;;1.30;;
49310;SDS011;35177;45.900;5.946;2024-01-07T03:01:23;1.58;;;1.20;;
49310;SDS011;35177;45.900;5.946;2024-01-07T03:03:49;1.67;;;1.27;;
49310;SDS011;35177;45.900;5.946;2024-01-07T03:06:14;1.90;;;1.52;;
49310;SDS011;35177;45.900;5.946;2024-01-07T03:08:40;1.77;;;1.48;;
49310;SDS011;35177;45.900;5.946;2024-01-07T03:11:06;2.10;;;1.38;;
49310;SDS011;35177;45.900;5.946;2024-01-07T03:13:32;1.83;;;1.70;;
49310;SDS011;35177;45.900;5.946;2024-01-07T03:15:58;1.75;;;1.45;;
49310;SDS011;35177;45.900;5.946;2024-01-07T03:18:23;1.90;;;1.63;;
49310;SDS011;35177;45.900;5.946;2024-01-07T03:20:49;1.73;;;1.58;;
49310;SDS011;35177;45.900;5.946;2024-01-07T03:23:14;2.38;;;1.60;;
49310;SDS011;35177;45.900;5.946;2024-01-07T03:25:40;2.40;;;1.85;;
49310;SDS011;35177;45.900;5.946;2024-01-07T03:28:05;1.63;;;1.35;;
49310;SDS011;35177;45.900;5.946;2024-01-07T03:30:31;1.77;;;1.60;;
49310;SDS011;35177;45.900;5.946;2024-01-07T03:32:56;2.53;;;1.73;;
49310;SDS011;35177;45.900;5.946;2024-01-07T03:35:22;1.88;;;1.60;;
49310;SDS011;35177;45.900;5.946;2024-01-07T03:37:49;2.03;;;1.63;;
49310;SDS011;35177;45.900;5.946;2024-01-07T03:40:14;2.58;;;1.70;;
49310;SDS011;35177;45.900;5.946;2024-01-07T03:42:40;1.80;;;1.70;;
49310;SDS011;35177;45.900;5.946;2024-01-07T03:45:05;2.55;;;1.67;;
49310;SDS011;35177;45.900;5.946;2024-01-07T03:47:31;2.45;;;1.92;;
49310;SDS011;35177;45.900;5.946;2024-01-07T03:49:57;1.85;;;1.63;;
49310;SDS011;35177;45.900;5.946;2024-01-07T03:52:22;1.40;;;1.30;;
49310;SDS011;35177;45.900;5.946;2024-01-07T03:54:48;2.55;;;1.50;;
49310;SDS011;35177;45.900;5.946;2024-01-07T03:57:13;2.25;;;1.67;;
49310;SDS011;35177;45.900;5.946;2024-01-07T03:59:38;2.60;;;1.85;;
49310;SDS011;35177;45.900;5.946;2024-01-07T04:02:04;1.55;;;1.25;;
49310;SDS011;35177;45.900;5.946;2024-01-07T04:04:29;4.22;;;2.30;;
49310;SDS011;35177;45.900;5.946;2024-01-07T04:06:55;2.72;;;2.10;;
49310;SDS011;35177;45.900;5.946;2024-01-07T04:09:20;3.92;;;2.42;;
49310;SDS011;35177;45.900;5.946;2024-01-07T04:11:45;3.55;;;2.42;;
49310;SDS011;35177;45.900;5.946;2024-01-07T04:14:13;5.70;;;3.22;;
49310;SDS011;35177;45.900;5.946;2024-01-07T04:16:40;4.10;;;2.60;;
49310;SDS011;35177;45.900;5.946;2024-01-07T04:19:05;2.33;;;1.30;;
49310;SDS011;35177;45.900;5.946;2024-01-07T04:21:31;3.60;;;1.52;;
49310;SDS011;35177;45.900;5.946;2024-01-07T04:23:56;2.67;;;1.88;;
49310;SDS011;35177;45.900;5.946;2024-01-07T04:26:22;2.15;;;1.90;;
49310;SDS011;35177;45.900;5.946;2024-01-07T04:28:47;2.45;;;2.10;;
49310;SDS011;35177;45.900;5.946;2024-01-07T04:31:13;2.00;;;1.80;;
49310;SDS011;35177;45.900;5.946;2024-01-07T04:33:38;1.75;;;1.60;;
49310;SDS011;35177;45.900;5.946;2024-01-07T04:36:04;1.30;;;1.20;;
49310;SDS011;35177;45.900;5.946;2024-01-07T04:38:30;1.90;;;1.35;;
49310;SDS011;35177;45.900;5.946;2024-01-07T04:40:55;1.33;;;1.10;;
49310;SDS011;35177;45.900;5.946;2024-01-07T04:43:21;1.20;;;1.10;;
49310;SDS011;35177;45.900;5.946;2024-01-07T04:45:46;1.23;;;1.02;;
49310;SDS011;35177;45.900;5.946;2024-01-07T04:48:12;0.80;;;0.80;;
49310;SDS011;35177;45.900;5.946;2024-01-07T04:50:39;0.85;;;0.85;;
49310;SDS011;35177;45.900;5.946;2024-01-07T04:53:06;1.20;;;1.00;;
49310;SDS011;35177;45.900;5.946;2024-01-07T04:55:32;0.80;;;0.77;;
49310;SDS011;35177;45.900;5.946;2024-01-07T04:57:58;0.60;;;0.60;;
49310;SDS011;35177;45.900;5.946;2024-01-07T05:00:23;1.15;;;0.60;;
49310;SDS011;35177;45.900;5.946;2024-01-07T05:02:48;0.60;;;0.60;;
49310;SDS011;35177;45.900;5.946;2024-01-07T05:05:14;2.05;;;0.60;;
49310;SDS011;35177;45.900;5.946;2024-01-07T05:07:39;0.40;;;0.40;;
49310;SDS011;35177;45.900;5.946;2024-01-07T05:10:05;0.50;;;0.50;;
49310;SDS011;35177;45.900;5.946;2024-01-07T05:12:31;0.38;;;0.38;;
49310;SDS011;35177;45.900;5.946;2024-01-07T05:14:56;0.40;;;0.40;;
49310;SDS011;35177;45.900;5.946;2024-01-07T05:17:22;0.30;;;0.30;;
49310;SDS011;35177;45.900;5.946;2024-01-07T05:19:47;0.75;;;0.40;;
49310;SDS011;35177;45.900;5.946;2024-01-07T05:22:12;0.30;;;0.30;;
49310;SDS011;35177;45.900;5.946;2024-01-07T05:24:38;0.43;;;0.30;;
49310;SDS011;35177;45.900;5.946;2024-01-07T05:27:03;0.30;;;0.30;;
49310;SDS011;35177;45.900;5.946;2024-01-07T05:29:29;0.73;;;0.30;;
49310;SDS011;35177;45.900;5.946;2024-01-07T05:31:55;0.30;;;0.20;;
49310;SDS011;35177;45.900;5.946;2024-01-07T05:34:20;0.20;;;0.20;;
49310;SDS011;35177;45.900;5.946;2024-01-07T05:36:46;0.20;;;0.20;;
49310;SDS011;35177;45.900;5.946;2024-01-07T05:39:11;0.20;;;0.20;;
49310;SDS011;35177;45.900;5.946;2024-01-07T05:41:37;0.13;;;0.13;;
49310;SDS011;35177;45.900;5.946;2024-01-07T05:44:05;0.20;;;0.20;;
49310;SDS011;35177;45.900;5.946;2024-01-07T05:46:32;1.73;;;1.00;;
49310;SDS011;35177;45.900;5.946;2024-01-07T05:48:58;3.92;;;1.77;;
49310;SDS011;35177;45.900;5.946;2024-01-07T05:51:23;5.15;;;1.80;;
49310;SDS011;35177;45.900;5.946;2024-01-07T05:53:49;1.83;;;0.82;;
49310;SDS011;35177;45.900;5.946;2024-01-07T05:56:14;1.42;;;0.73;;
49310;SDS011;35177;45.900;5.946;2024-01-07T05:58:39;1.67;;;0.82;;
49310;SDS011;35177;45.900;5.946;2024-01-07T06:01:06;0.32;;;0.30;;
49310;SDS011;35177;45.900;5.946;2024-01-07T06:03:33;0.57;;;0.40;;
49310;SDS011;35177;45.900;5.946;2024-01-07T06:05:58;1.55;;;0.57;;
49310;SDS011;35177;45.900;5.946;2024-01-07T06:08:24;0.38;;;0.30;;
49310;SDS011;35177;45.900;5.946;2024-01-07T06:10:50;0.25;;;0.22;;
49310;SDS011;35177;45.900;5.946;2024-01-07T06:13:15;0.50;;;0.50;;
49310;SDS011;35177;45.900;5.946;2024-01-07T06:15:41;0.30;;;0.30;;
49310;SDS011;35177;45.900;5.946;2024-01-07T06:18:07;0.50;;;0.50;;
49310;SDS011;35177;45.900;5.946;2024-01-07T06:20:32;0.70;;;0.70;;
49310;SDS011;35177;45.900;5.946;2024-01-07T06:22:57;2.60;;;1.27;;
49310;SDS011;35177;45.900;5.946;2024-01-07T06:25:23;2.38;;;1.60;;
49310;SDS011;35177;45.900;5.946;2024-01-07T06:27:51;0.82;;;0.80;;
49310;SDS011;35177;45.900;5.946;2024-01-07T06:30:16;0.50;;;0.43;;
49310;SDS011;35177;45.900;5.946;2024-01-07T06:32:44;0.60;;;0.10;;
49310;SDS011;35177;45.900;5.946;2024-01-07T06:35:10;0.28;;;0.28;;
49310;SDS011;35177;45.900;5.946;2024-01-07T06:37:36;0.68;;;0.30;;
49310;SDS011;35177;45.900;5.946;2024-01-07T06:40:02;0.13;;;0.13;;
49310;SDS011;35177;45.900;5.946;2024-01-07T06:42:28;0.40;;;0.40;;
49310;SDS011;35177;45.900;5.946;2024-01-07T06:44:53;0.40;;;0.40;;
49310;SDS011;35177;45.900;5.946;2024-01-07T06:47:19;0.43;;;0.32;;
49310;SDS011;35177;45.900;5.946;2024-01-07T06:49:44;0.20;;;0.20;;
49310;SDS011;35177;45.900;5.946;2024-01-07T06:52:10;0.10;;;0.10;;
49310;SDS011;35177;45.900;5.946;2024-01-07T06:54:35;0.10;;;0.10;;
49310;SDS011;35177;45.900;5.946;2024-01-07T06:57:01;0.40;;;0.38;;
49310;SDS011;35177;45.900;5.946;2024-01-07T06:59:27;0.15;;;0.13;;
49310;SDS011;35177;45.900;5.946;2024-01-07T07:01:52;0.25;;;0.20;;
49310;SDS011;35177;45.900;5.946;2024-01-07T07:04:20;0.20;;;0.20;;
49310;SDS011;35177;45.900;5.946;2024-01-07T07:06:45;0.68;;;0.20;;
49310;SDS011;35177;45.900;5.946;2024-01-07T07:09:11;0.20;;;0.20;;
49310;SDS011;35177;45.900;5.946;2024-01-07T07:11:37;0.80;;;0.60;;
49310;SDS011;35177;45.900;5.946;2024-01-07T07:14:03;1.02;;;0.90;;
49310;SDS011;35177;45.900;5.946;2024-01-07T07:16:28;0.88;;;0.68;;
49310;SDS011;35177;45.900;5.946;2024-01-07T07:18:54;1.65;;;1.17;;
49310;SDS011;35177;45.900;5.946;2024-01-07T07:21:19;2.08;;;1.08;;
49310;SDS011;35177;45.900;5.946;2024-01-07T07:23:44;2.15;;;1.00;;
49310;SDS011;35177;45.900;5.946;2024-01-07T07:26:10;0.57;;;0.52;;
49310;SDS011;35177;45.900;5.946;2024-01-07T07:28:35;0.93;;;0.35;;
49310;SDS011;35177;45.900;5.946;2024-01-07T07:31:01;0.55;;;0.43;;
49310;SDS011;35177;45.900;5.946;2024-01-07T07:33:27;0.40;;;0.30;;
49310;SDS011;35177;45.900;5.946;2024-01-07T07:35:58;1.77;;;0.70;;
49310;SDS011;35177;45.900;5.946;2024-01-07T07:38:23;0.60;;;0.40;;
49310;SDS011;35177;45.900;5.946;2024-01-07T07:40:48;0.73;;;0.50;;
49310;SDS011;35177;45.900;5.946;2024-01-07T07:43:18;0.93;;;0.55;;
49310;SDS011;35177;45.900;5.946;2024-01-07T07:45:48;0.57;;;0.47;;
49310;SDS011;35177;45.900;5.946;2024-01-07T07:48:13;0.45;;;0.30;;
49310;SDS011;35177;45.900;5.946;2024-01-07T07:50:39;0.32;;;0.32;;
49310;SDS011;35177;45.900;5.946;2024-01-07T07:53:05;0.20;;;0.20;;
49310;SDS011;35177;45.900;5.946;2024-01-07T07:55:31;1.17;;;0.50;;
49310;SDS011;35177;45.900;5.946;2024-01-07T07:57:56;0.68;;;0.47;;
49310;SDS011;35177;45.900;5.946;2024-01-07T08:00:23;0.40;;;0.40;;
49310;SDS011;35177;45.900;5.946;2024-01-07T08:02:49;0.30;;;0.20;;
49310;SDS011;35177;45.900;5.946;2024-01-07T08:05:14;0.30;;;0.30;;
49310;SDS011;35177;45.900;5.946;2024-01-07T08:07:44;0.30;;;0.30;;
49310;SDS011;35177;45.900;5.946;2024-01-07T08:10:14;12.30;;;3.55;;
49310;SDS011;35177;45.900;5.946;2024-01-07T08:12:41;16.73;;;4.20;;
49310;SDS011;35177;45.900;5.946;2024-01-07T08:15:06;18.13;;;3.97;;
49310;SDS011;35177;45.900;5.946;2024-01-07T08:17:32;6.65;;;2.50;;
49310;SDS011;35177;45.900;5.946;2024-01-07T08:19:58;4.70;;;2.17;;
49310;SDS011;35177;45.900;5.946;2024-01-07T08:22:23;2.53;;;2.15;;
49310;SDS011;35177;45.900;5.946;2024-01-07T08:24:49;4.10;;;2.28;;
49310;SDS011;35177;45.900;5.946;2024-01-07T08:27:15;3.08;;;1.20;;
49310;SDS011;35177;45.900;5.946;2024-01-07T08:29:42;0.80;;;0.80;;
49310;SDS011;35177;45.900;5.946;2024-01-07T08:32:09;0.95;;;0.80;;
49310;SDS011;35177;45.900;5.946;2024-01-07T08:34:34;0.50;;;0.50;;
49310;SDS011;35177;45.900;5.946;2024-01-07T08:37:00;0.60;;;0.52;;
49310;SDS011;35177;45.900;5.946;2024-01-07T08:39:25;0.32;;;0.32;;
49310;SDS011;35177;45.900;5.946;2024-01-07T08:41:53;0.75;;;0.50;;
49310;SDS011;35177;45.900;5.946;2024-01-07T08:44:19;0.80;;;0.70;;
49310;SDS011;35177;45.900;5.946;2024-01-07T08:46:44;1.92;;;1.30;;
49310;SDS011;35177;45.900;5.946;2024-01-07T08:49:10;1.30;;;1.00;;
49310;SDS011;35177;45.900;5.946;2024-01-07T08:51:36;0.80;;;0.50;;
49310;SDS011;35177;45.900;5.946;2024-01-07T08:54:02;0.68;;;0.55;;
49310;SDS011;35177;45.900;5.946;2024-01-07T08:56:28;0.60;;;0.55;;
49310;SDS011;35177;45.900;5.946;2024-01-07T08:58:53;0.60;;;0.50;;
49310;SDS011;35177;45.900;5.946;2024-01-07T09:01:19;1.20;;;0.90;;
49310;SDS011;35177;45.900;5.946;2024-01-07T09:03:44;1.10;;;0.93;;
49310;SDS011;35177;45.900;5.946;2024-01-07T09:06:09;1.58;;;1.10;;
49310;SDS011;35177;45.900;5.946;2024-01-07T09:08:35;0.85;;;0.60;;
49310;SDS011;35177;45.900;5.946;2024-01-07T09:11:01;0.45;;;0.40;;
49310;SDS011;35177;45.900;5.946;2024-01-07T09:13:29;1.40;;;0.70;;
49310;SDS011;35177;45.900;5.946;2024-01-07T09:15:54;0.30;;;0.30;;
49310;SDS011;35177;45.900;5.946;2024-01-07T09:18:19;0.60;;;0.57;;
49310;SDS011;35177;45.900;5.946;2024-01-07T09:20:45;1.17;;;0.63;;
49310;SDS011;35177;45.900;5.946;2024-01-07T09:23:10;0.47;;;0.43;;
49310;SDS011;35177;45.900;5.946;2024-01-07T09:25:37;1.92;;;0.50;;
49310;SDS011;35177;45.900;5.946;2024-01-07T09:28:02;0.85;;;0.50;;
49310;SDS011;35177;45.900;5.946;2024-01-07T09:30:28;2.83;;;1.50;;
49310;SDS011;35177;45.900;5.946;2024-01-07T09:32:53;8.27;;;2.55;;
49310;SDS011;35177;45.900;5.946;2024-01-07T09:35:19;8.43;;;3.10;;
49310;SDS011;35177;45.900;5.946;2024-01-07T09:37:44;6.28;;;2.17;;
49310;SDS011;35177;45.900;5.946;2024-01-07T09:40:09;5.80;;;2.25;;
49310;SDS011;35177;45.900;5.946;2024-01-07T09:42:36;1.63;;;0.80;;
49310;SDS011;35177;45.900;5.946;2024-01-07T09:45:02;2.05;;;1.13;;
49310;SDS011;35177;45.900;5.946;2024-01-07T09:47:31;1.48;;;1.00;;
49310;SDS011;35177;45.900;5.946;2024-01-07T09:49:57;1.27;;;1.02;;
49310;SDS011;35177;45.900;5.946;2024-01-07T09:52:22;1.58;;;1.00;;
49310;SDS011;35177;45.900;5.946;2024-01-07T09:54:51;2.30;;;1.17;;
49310;SDS011;35177;45.900;5.946;2024-01-07T09:57:18;0.50;;;0.45;;
49310;SDS011;35177;45.900;5.946;2024-01-07T09:59:43;0.43;;;0.43;;
49310;SDS011;35177;45.900;5.946;2024-01-07T10:02:11;0.40;;;0.40;;
49310;SDS011;35177;45.900;5.946;2024-01-07T10:04:36;0.65;;;0.50;;
49310;SDS011;35177;45.900;5.946;2024-01-07T10:07:02;0.30;;;0.30;;
49310;SDS011;35177;45.900;5.946;2024-01-07T10:09:28;0.60;;;0.50;;
49310;SDS011;35177;45.900;5.946;2024-01-07T10:11:55;0.40;;;0.40;;
49310;SDS011;35177;45.900;5.946;2024-01-07T10:14:20;1.20;;;0.50;;
49310;SDS011;35177;45.900;5.946;2024-01-07T10:16:49;0.68;;;0.65;;
49310;SDS011;35177;45.900;5.946;2024-01-07T10:19:22;0.50;;;0.50;;
49310;SDS011;35177;45.900;5.946;2024-01-07T10:22:01;0.60;;;0.60;;
49310;SDS011;35177;45.900;5.946;2024-01-07T10:24:31;3.53;;;0.50;;
49310;SDS011;35177;45.900;5.946;2024-01-07T10:27:04;2.15;;;0.50;;
49310;SDS011;35177;45.900;5.946;2024-01-07T10:29:30;0.70;;;0.50;;
49310;SDS011;35177;45.900;5.946;2024-01-07T10:32:00;0.70;;;0.50;;
49310;SDS011;35177;45.900;5.946;2024-01-07T10:34:33;0.70;;;0.60;;
49310;SDS011;35177;45.900;5.946;2024-01-07T10:37:00;0.65;;;0.52;;
49310;SDS011;35177;45.900;5.946;2024-01-07T10:39:28;1.08;;;0.68;;
49310;SDS011;35177;45.900;5.946;2024-01-07T10:41:55;2.85;;;0.80;;
49310;SDS011;35177;45.900;5.946;2024-01-07T10:44:25;0.38;;;0.38;;
49310;SDS011;35177;45.900;5.946;2024-01-07T10:46:52;0.60;;;0.60;;
49310;SDS011;35177;45.900;5.946;2024-01-07T10:49:20;0.40;;;0.40;;
49310;SDS011;35177;45.900;5.946;2024-01-07T10:51:46;0.55;;;0.40;;
49310;SDS011;35177;45.900;5.946;2024-01-07T10:54:24;0.40;;;0.40;;
49310;SDS011;35177;45.900;5.946;2024-01-07T10:56:53;0.52;;;0.35;;
49310;SDS011;35177;45.900;5.946;2024-01-07T10:59:24;0.30;;;0.30;;
49310;SDS011;35177;45.900;5.946;2024-01-07T11:01:51;1.08;;;0.73;;
49310;SDS011;35177;45.900;5.946;2024-01-07T11:04:24;0.30;;;0.30;;
49310;SDS011;35177;45.900;5.946;2024-01-07T11:09:43;0.10;;;0.10;;
49310;SDS011;35177;45.900;5.946;2024-01-07T11:12:15;0.40;;;0.30;;
49310;SDS011;35177;45.900;5.946;2024-01-07T11:14:42;0.50;;;0.40;;
49310;SDS011;35177;45.900;5.946;2024-01-07T11:17:39;0.22;;;0.22;;
49310;SDS011;35177;45.900;5.946;2024-01-07T15:31:28;0.82;;;0.38;;
49310;SDS011;35177;45.900;5.946;2024-01-07T15:36:44;0.30;;;0.30;;
49310;SDS011;35177;45.900;5.946;2024-01-07T15:39:09;0.57;;;0.52;;
49310;SDS011;35177;45.900;5.946;2024-01-07T15:41:35;0.40;;;0.40;;
49310;SDS011;35177;45.900;5.946;2024-01-07T15:44:00;0.40;;;0.40;;
49310;SDS011;35177;45.900;5.946;2024-01-07T15:46:26;0.60;;;0.35;;
49310;SDS011;35177;45.900;5.946;2024-01-07T15:48:53;0.85;;;0.68;;
49310;SDS011;35177;45.900;5.946;2024-01-07T15:51:18;0.50;;;0.40;;
49310;SDS011;35177;45.900;5.946;2024-01-07T15:53:44;0.60;;;0.60;;
49310;SDS011;35177;45.900;5.946;2024-01-07T15:56:09;1.02;;;0.70;;
49310;SDS011;35177;45.900;5.946;2024-01-07T15:58:34;0.82;;;0.60;;
49310;SDS011;35177;45.900;5.946;2024-01-07T16:01:00;0.80;;;0.70;;
49310;SDS011;35177;45.900;5.946;2024-01-07T16:03:28;1.00;;;0.90;;
49310;SDS011;35177;45.900;5.946;2024-01-07T16:05:57;0.60;;;0.60;;
49310;SDS011;35177;45.900;5.946;2024-01-07T16:08:23;1.40;;;1.00;;
49310;SDS011;35177;45.900;5.946;2024-01-07T16:10:53;0.63;;;0.60;;
49310;SDS011;35177;45.900;5.946;2024-01-07T16:13:19;0.50;;;0.40;;
49310;SDS011;35177;45.900;5.946;2024-01-07T16:15:45;1.75;;;1.05;;
49310;SDS011;35177;45.900;5.946;2024-01-07T16:18:10;1.40;;;0.73;;
49310;SDS011;35177;45.900;5.946;2024-01-07T16:20:36;1.17;;;0.63;;
49310;SDS011;35177;45.900;5.946;2024-01-07T16:23:02;1.52;;;1.00;;
49310;SDS011;35177;45.900;5.946;2024-01-07T16:25:33;2.13;;;1.50;;
49310;SDS011;35177;45.900;5.946;2024-01-07T16:27:58;1.35;;;0.90;;
49310;SDS011;35177;45.900;5.946;2024-01-07T16:30:26;2.13;;;1.00;;
49310;SDS011;35177;45.900;5.946;2024-01-07T16:32:52;1.20;;;0.95;;
49310;SDS011;35177;45.900;5.946;2024-01-07T16:35:18;1.58;;;1.15;;
49310;SDS011;35177;45.900;5.946;2024-01-07T16:37:44;1.42;;;0.98;;
49310;SDS011;35177;45.900;5.946;2024-01-07T16:40:09;1.10;;;0.70;;
49310;SDS011;35177;45.900;5.946;2024-01-07T16:42:37;2.25;;;1.30;;
49310;SDS011;35177;45.900;5.946;2024-01-07T16:45:03;2.97;;;1.10;;
49310;SDS011;35177;45.900;5.946;2024-01-07T16:47:29;0.98;;;0.70;;
49310;SDS011;35177;45.900;5.946;2024-01-07T16:53:19;0.70;;;0.70;;
49310;SDS011;35177;45.900;5.946;2024-01-07T16:55:45;1.25;;;0.82;;
49310;SDS011;35177;45.900;5.946;2024-01-07T16:58:11;0.63;;;0.50;;
49310;SDS011;35177;45.900;5.946;2024-01-07T17:00:37;0.73;;;0.50;;
49310;SDS011;35177;45.900;5.946;2024-01-07T17:03:03;0.40;;;0.40;;
49310;SDS011;35177;45.900;5.946;2024-01-07T17:05:28;0.40;;;0.40;;
49310;SDS011;35177;45.900;5.946;2024-01-07T17:07:55;0.32;;;0.32;;
49310;SDS011;35177;45.900;5.946;2024-01-07T17:10:20;0.75;;;0.60;;
49310;SDS011;35177;45.900;5.946;2024-01-07T17:12:46;0.40;;;0.40;;
49310;SDS011;35177;45.900;5.946;2024-01-07T17:15:12;0.77;;;0.63;;
49310;SDS011;35177;45.900;5.946;2024-01-07T17:17:39;0.55;;;0.40;;
49310;SDS011;35177;45.900;5.946;2024-01-07T17:20:05;0.30;;;0.30;;
49310;SDS011;35177;45.900;5.946;2024-01-07T17:22:34;0.93;;;0.68;;
49310;SDS011;35177;45.900;5.946;2024-01-07T17:25:00;0.47;;;0.40;;
49310;SDS011;35177;45.900;5.946;2024-01-07T17:27:25;0.50;;;0.50;;
49310;SDS011;35177;45.900;5.946;2024-01-07T17:29:50;0.80;;;0.63;;
49310;SDS011;35177;45.900;5.946;2024-01-07T17:32:16;0.68;;;0.60;;
49310;SDS011;35177;45.900;5.946;2024-01-07T17:34:47;0.82;;;0.60;;
49310;SDS011;35177;45.900;5.946;2024-01-07T17:37:14;0.40;;;0.40;;
49310;SDS011;35177;45.900;5.946;2024-01-07T17:39:39;0.70;;;0.70;;
49310;SDS011;35177;45.900;5.946;2024-01-07T17:42:05;0.50;;;0.50;;
49310;SDS011;35177;45.900;5.946;2024-01-07T17:44:32;0.73;;;0.47;;
49310;SDS011;35177;45.900;5.946;2024-01-07T17:46:58;0.50;;;0.50;;
49310;SDS011;35177;45.900;5.946;2024-01-07T17:49:23;0.88;;;0.60;;
49310;SDS011;35177;45.900;5.946;2024-01-07T17:51:49;0.68;;;0.60;;
49310;SDS011;35177;45.900;5.946;2024-01-07T17:54:14;0.95;;;0.55;;
49310;SDS011;35177;45.900;5.946;2024-01-07T17:56:39;0.95;;;0.70;;
49310;SDS011;35177;45.900;5.946;2024-01-07T17:59:05;1.00;;;0.77;;
49310;SDS011;35177;45.900;5.946;2024-01-07T18:01:32;0.80;;;0.50;;
49310;SDS011;35177;45.900;5.946;2024-01-07T18:03:58;0.95;;;0.75;;
49310;SDS011;35177;45.900;5.946;2024-01-07T18:06:23;0.63;;;0.63;;
49310;SDS011;35177;45.900;5.946;2024-01-07T18:08:50;0.45;;;0.43;;
49310;SDS011;35177;45.900;5.946;2024-01-07T18:11:16;0.80;;;0.73;;
49310;SDS011;35177;45.900;5.946;2024-01-07T18:13:41;0.60;;;0.60;;
49310;SDS011;35177;45.900;5.946;2024-01-07T18:16:07;1.00;;;0.80;;
49310;SDS011;35177;45.900;5.946;2024-01-07T18:18:34;0.70;;;0.70;;
49310;SDS011;35177;45.900;5.946;2024-01-07T18:21:00;0.60;;;0.60;;
49310;SDS011;35177;45.900;5.946;2024-01-07T18:23:26;1.00;;;0.63;;
49310;SDS011;35177;45.900;5.946;2024-01-07T18:25:52;0.82;;;0.80;;
49310;SDS011;35177;45.900;5.946;2024-01-07T18:28:17;0.95;;;0.68;;
49310;SDS011;35177;45.900;5.946;2024-01-07T18:30:43;0.88;;;0.60;;
49310;SDS011;35177;45.900;5.946;2024-01-07T18:33:09;3.13;;;0.70;;
49310;SDS011;35177;45.900;5.946;2024-01-07T18:35:35;0.95;;;0.85;;
49310;SDS011;35177;45.900;5.946;2024-01-07T18:38:01;1.52;;;0.80;;
49310;SDS011;35177;45.900;5.946;2024-01-07T18:40:27;0.88;;;0.82;;
49310;SDS011;35177;45.900;5.946;2024-01-07T18:42:52;0.90;;;0.80;;
49310;SDS011;35177;45.900;5.946;2024-01-07T18:45:18;1.50;;;0.90;;
49310;SDS011;35177;45.900;5.946;2024-01-07T18:47:43;0.98;;;0.88;;
49310;SDS011;35177;45.900;5.946;2024-01-07T18:50:09;0.95;;;0.70;;
49310;SDS011;35177;45.900;5.946;2024-01-07T18:52:34;1.60;;;0.88;;
49310;SDS011;35177;45.900;5.946;2024-01-07T18:55:00;1.10;;;1.00;;
49310;SDS011;35177;45.900;5.946;2024-01-07T18:57:27;1.33;;;1.00;;
49310;SDS011;35177;45.900;5.946;2024-01-07T18:59:53;1.10;;;1.00;;
49310;SDS011;35177;45.900;5.946;2024-01-07T19:02:18;1.77;;;1.30;;